sensor_id;sensor_type;location;lat;lon;timestamp;P1;durP1;ratioP1;P2;durP2;ratioP2
10491;SDS011;5293;51.464;-2.566;2023-02-11T00:00:31;16.97;;;9.70;;
10491;SDS011;5293;51.464;-2.566;2023-02-11T00:02:57;11.33;;;6.47;;
10491;SDS011;5293;51.464;-2.566;2023-02-11T00:05:23;8.93;;;5.83;;
10491;SDS011;5293;51.464;-2.566;2023-02-11T00:07:48;11.37;;;5.80;;
10491;SDS011;5293;51.464;-2.566;2023-02-11T00:10:14;11.40;;;6.33;;
10491;SDS011;5293;51.464;-2.566;2023-02-11T00:12:40;11.13;;;6.47;;
10491;SDS011;5293;51.464;-2.566;2023-02-11T00:15:07;13.60;;;6.00;;
10491;SDS011;5293;51.464;-2.566;2023-02-11T00:17:33;10.77;;;6.40;;
10491;SDS011;5293;51.464;-2.566;2023-02-11T00:19:59;12.23;;;6.47;;
10491;SDS011;5293;51.464;-2.566;2023-02-11T00:22:25;13.37;;;6.70;;
10491;SDS011;5293;51.464;-2.566;2023-02-11T00:24:51;15.53;;;6.97;;
10491;SDS011;5293;51.464;-2.566;2023-02-11T00:27:17;12.67;;;6.23;;
10491;SDS011;5293;51.464;-2.566;2023-02-11T00:29:43;15.87;;;6.07;;
10491;SDS011;5293;51.464;-2.566;2023-02-11T00:32:09;13.57;;;6.13;;
10491;SDS011;5293;51.464;-2.566;2023-02-11T00:34:35;13.10;;;6.70;;
10491;SDS011;5293;51.464;-2.566;2023-02-11T00:37:02;11.87;;;6.40;;
10491;SDS011;5293;51.464;-2.566;2023-02-11T00:39:28;10.27;;;5.40;;
10491;SDS011;5293;51.464;-2.566;2023-02-11T00:41:54;11.23;;;6.17;;
10491;SDS011;5293;51.464;-2.566;2023-02-11T00:44:20;9.03;;;5.90;;
10491;SDS011;5293;51.464;-2.566;2023-02-11T00:46:46;8.90;;;6.00;;
10491;SDS011;5293;51.464;-2.566;2023-02-11T00:49:11;9.53;;;5.90;;
10491;SDS011;5293;51.464;-2.566;2023-02-11T00:51:37;11.63;;;6.50;;
10491;SDS011;5293;51.464;-2.566;2023-02-11T00:54:03;11.77;;;7.10;;
10491;SDS011;5293;51.464;-2.566;2023-02-11T00:56:29;10.40;;;5.57;;
10491;SDS011;5293;51.464;-2.566;2023-02-11T00:58:55;7.97;;;6.00;;
10491;SDS011;5293;51.464;-2.566;2023-02-11T01:01:21;11.57;;;6.33;;
10491;SDS011;5293;51.464;-2.566;2023-02-11T01:03:47;11.03;;;6.40;;
10491;SDS011;5293;51.464;-2.566;2023-02-11T01:06:13;9.37;;;5.30;;
10491;SDS011;5293;51.464;-2.566;2023-02-11T01:08:39;12.80;;;6.40;;
10491;SDS011;5293;51.464;-2.566;2023-02-11T01:11:06;12.30;;;6.07;;
10491;SDS011;5293;51.464;-2.566;2023-02-11T01:13:35;9.57;;;5.33;;
10491;SDS011;5293;51.464;-2.566;2023-02-11T01:16:02;11.83;;;6.37;;
10491;SDS011;5293;51.464;-2.566;2023-02-11T01:18:30;18.40;;;5.20;;
10491;SDS011;5293;51.464;-2.566;2023-02-11T01:20:55;12.23;;;5.00;;
10491;SDS011;5293;51.464;-2.566;2023-02-11T01:23:21;9.43;;;4.17;;
10491;SDS011;5293;51.464;-2.566;2023-02-11T01:25:47;6.57;;;4.40;;
10491;SDS011;5293;51.464;-2.566;2023-02-11T01:28:16;10.53;;;3.73;;
10491;SDS011;5293;51.464;-2.566;2023-02-11T01:30:43;5.73;;;3.90;;
10491;SDS011;5293;51.464;-2.566;2023-02-11T01:33:09;12.20;;;4.30;;
10491;SDS011;5293;51.464;-2.566;2023-02-11T01:35:36;10.90;;;4.17;;
10491;SDS011;5293;51.464;-2.566;2023-02-11T01:38:03;12.87;;;4.53;;
10491;SDS011;5293;51.464;-2.566;2023-02-11T01:40:28;13.97;;;3.60;;
10491;SDS011;5293;51.464;-2.566;2023-02-11T01:42:54;9.13;;;3.70;;
10491;SDS011;5293;51.464;-2.566;2023-02-11T01:48:14;7.87;;;4.20;;
10491;SDS011;5293;51.464;-2.566;2023-02-11T01:50:54;8.03;;;4.17;;
10491;SDS011;5293;51.464;-2.566;2023-02-11T01:53:25;7.47;;;3.60;;
10491;SDS011;5293;51.464;-2.566;2023-02-11T01:56:10;6.90;;;4.00;;
10491;SDS011;5293;51.464;-2.566;2023-02-11T01:58:55;9.20;;;4.13;;
10491;SDS011;5293;51.464;-2.566;2023-02-11T02:01:25;10.20;;;4.53;;
10491;SDS011;5293;51.464;-2.566;2023-02-11T02:03:53;11.17;;;4.20;;
10491;SDS011;5293;51.464;-2.566;2023-02-11T02:06:36;10.73;;;4.03;;
10491;SDS011;5293;51.464;-2.566;2023-02-11T02:09:18;8.40;;;3.97;;
10491;SDS011;5293;51.464;-2.566;2023-02-11T02:11:51;7.57;;;3.97;;
10491;SDS011;5293;51.464;-2.566;2023-02-11T02:14:17;10.20;;;4.77;;
10491;SDS011;5293;51.464;-2.566;2023-02-11T02:16:43;10.17;;;4.70;;
10491;SDS011;5293;51.464;-2.566;2023-02-11T02:22:21;8.83;;;3.83;;
10491;SDS011;5293;51.464;-2.566;2023-02-11T02:27:41;8.43;;;4.27;;
10491;SDS011;5293;51.464;-2.566;2023-02-11T02:30:37;12.13;;;4.13;;
10491;SDS011;5293;51.464;-2.566;2023-02-11T02:36:04;11.53;;;4.83;;
10491;SDS011;5293;51.464;-2.566;2023-02-11T02:41:22;11.10;;;4.53;;
10491;SDS011;5293;51.464;-2.566;2023-02-11T02:43:55;11.47;;;5.13;;
10491;SDS011;5293;51.464;-2.566;2023-02-11T02:46:23;12.83;;;5.53;;
10491;SDS011;5293;51.464;-2.566;2023-02-11T02:48:52;9.90;;;4.90;;
10491;SDS011;5293;51.464;-2.566;2023-02-11T02:56:47;15.87;;;5.20;;
10491;SDS011;5293;51.464;-2.566;2023-02-11T03:02:15;13.93;;;5.17;;
10491;SDS011;5293;51.464;-2.566;2023-02-11T03:04:56;10.53;;;5.60;;
10491;SDS011;5293;51.464;-2.566;2023-02-11T03:07:28;15.70;;;5.70;;
10491;SDS011;5293;51.464;-2.566;2023-02-11T03:10:06;14.80;;;4.57;;
10491;SDS011;5293;51.464;-2.566;2023-02-11T03:12:37;15.20;;;4.90;;
10491;SDS011;5293;51.464;-2.566;2023-02-11T03:15:06;9.60;;;4.27;;
10491;SDS011;5293;51.464;-2.566;2023-02-11T03:17:33;14.77;;;5.30;;
10491;SDS011;5293;51.464;-2.566;2023-02-11T03:20:01;18.37;;;4.90;;
10491;SDS011;5293;51.464;-2.566;2023-02-11T03:22:48;14.50;;;5.53;;
10491;SDS011;5293;51.464;-2.566;2023-02-11T03:25:36;9.60;;;4.70;;
10491;SDS011;5293;51.464;-2.566;2023-02-11T03:30:48;10.37;;;4.67;;
10491;SDS011;5293;51.464;-2.566;2023-02-11T03:33:26;9.00;;;5.03;;
10491;SDS011;5293;51.464;-2.566;2023-02-11T03:36:03;12.93;;;5.23;;
10491;SDS011;5293;51.464;-2.566;2023-02-11T03:38:41;14.53;;;5.90;;
10491;SDS011;5293;51.464;-2.566;2023-02-11T03:41:11;13.10;;;5.77;;
10491;SDS011;5293;51.464;-2.566;2023-02-11T03:43:43;14.30;;;5.27;;
10491;SDS011;5293;51.464;-2.566;2023-02-11T03:46:12;10.73;;;5.60;;
10491;SDS011;5293;51.464;-2.566;2023-02-11T03:48:43;13.20;;;5.00;;
10491;SDS011;5293;51.464;-2.566;2023-02-11T03:51:15;12.53;;;6.50;;
10491;SDS011;5293;51.464;-2.566;2023-02-11T03:53:42;14.00;;;5.80;;
10491;SDS011;5293;51.464;-2.566;2023-02-11T03:56:12;12.73;;;5.40;;
10491;SDS011;5293;51.464;-2.566;2023-02-11T03:58:43;10.50;;;5.23;;
10491;SDS011;5293;51.464;-2.566;2023-02-11T04:01:09;14.40;;;4.80;;
10491;SDS011;5293;51.464;-2.566;2023-02-11T04:03:35;10.40;;;5.23;;
10491;SDS011;5293;51.464;-2.566;2023-02-11T04:06:01;16.17;;;5.27;;
10491;SDS011;5293;51.464;-2.566;2023-02-11T04:08:26;10.43;;;4.60;;
10491;SDS011;5293;51.464;-2.566;2023-02-11T04:10:52;9.07;;;4.93;;
10491;SDS011;5293;51.464;-2.566;2023-02-11T04:13:18;8.67;;;4.43;;
10491;SDS011;5293;51.464;-2.566;2023-02-11T04:15:43;11.27;;;4.40;;
10491;SDS011;5293;51.464;-2.566;2023-02-11T04:18:09;9.87;;;4.73;;
10491;SDS011;5293;51.464;-2.566;2023-02-11T04:20:35;13.47;;;5.03;;
10491;SDS011;5293;51.464;-2.566;2023-02-11T04:23:00;14.43;;;4.50;;
10491;SDS011;5293;51.464;-2.566;2023-02-11T04:25:26;9.03;;;4.63;;
10491;SDS011;5293;51.464;-2.566;2023-02-11T04:27:52;11.37;;;4.60;;
10491;SDS011;5293;51.464;-2.566;2023-02-11T04:30:17;10.17;;;4.80;;
10491;SDS011;5293;51.464;-2.566;2023-02-11T04:32:43;9.63;;;4.70;;
10491;SDS011;5293;51.464;-2.566;2023-02-11T04:35:09;11.20;;;4.20;;
10491;SDS011;5293;51.464;-2.566;2023-02-11T04:37:34;12.90;;;5.10;;
10491;SDS011;5293;51.464;-2.566;2023-02-11T04:40:00;11.50;;;4.87;;
10491;SDS011;5293;51.464;-2.566;2023-02-11T04:42:26;8.60;;;5.20;;
10491;SDS011;5293;51.464;-2.566;2023-02-11T04:44:51;10.93;;;4.93;;
10491;SDS011;5293;51.464;-2.566;2023-02-11T04:47:17;10.33;;;4.97;;
10491;SDS011;5293;51.464;-2.566;2023-02-11T04:49:43;9.57;;;4.40;;
10491;SDS011;5293;51.464;-2.566;2023-02-11T04:52:09;8.33;;;5.03;;
10491;SDS011;5293;51.464;-2.566;2023-02-11T04:54:34;13.30;;;5.30;;
10491;SDS011;5293;51.464;-2.566;2023-02-11T04:57:00;11.50;;;5.03;;
10491;SDS011;5293;51.464;-2.566;2023-02-11T04:59:26;11.87;;;5.33;;
10491;SDS011;5293;51.464;-2.566;2023-02-11T05:01:51;12.87;;;5.20;;
10491;SDS011;5293;51.464;-2.566;2023-02-11T05:04:17;12.57;;;5.00;;
10491;SDS011;5293;51.464;-2.566;2023-02-11T05:06:43;12.60;;;4.83;;
10491;SDS011;5293;51.464;-2.566;2023-02-11T05:09:12;17.13;;;5.97;;
10491;SDS011;5293;51.464;-2.566;2023-02-11T05:11:38;13.97;;;5.20;;
10491;SDS011;5293;51.464;-2.566;2023-02-11T05:14:04;12.67;;;5.20;;
10491;SDS011;5293;51.464;-2.566;2023-02-11T05:16:30;12.93;;;5.20;;
10491;SDS011;5293;51.464;-2.566;2023-02-11T05:18:56;14.50;;;6.03;;
10491;SDS011;5293;51.464;-2.566;2023-02-11T05:21:22;14.83;;;5.53;;
10491;SDS011;5293;51.464;-2.566;2023-02-11T05:23:48;10.50;;;6.00;;
10491;SDS011;5293;51.464;-2.566;2023-02-11T05:26:15;8.13;;;5.53;;
10491;SDS011;5293;51.464;-2.566;2023-02-11T05:28:41;13.70;;;6.13;;
10491;SDS011;5293;51.464;-2.566;2023-02-11T05:31:07;16.17;;;6.13;;
10491;SDS011;5293;51.464;-2.566;2023-02-11T05:33:34;15.63;;;6.57;;
10491;SDS011;5293;51.464;-2.566;2023-02-11T05:36:00;14.67;;;6.47;;
10491;SDS011;5293;51.464;-2.566;2023-02-11T05:38:27;12.23;;;6.20;;
10491;SDS011;5293;51.464;-2.566;2023-02-11T05:40:54;14.20;;;6.20;;
10491;SDS011;5293;51.464;-2.566;2023-02-11T05:43:20;14.90;;;6.10;;
10491;SDS011;5293;51.464;-2.566;2023-02-11T05:45:46;12.83;;;5.83;;
10491;SDS011;5293;51.464;-2.566;2023-02-11T05:48:11;10.23;;;6.10;;
10491;SDS011;5293;51.464;-2.566;2023-02-11T05:50:37;12.33;;;5.97;;
10491;SDS011;5293;51.464;-2.566;2023-02-11T05:53:03;13.33;;;6.57;;
10491;SDS011;5293;51.464;-2.566;2023-02-11T05:55:29;14.13;;;6.20;;
10491;SDS011;5293;51.464;-2.566;2023-02-11T05:57:55;17.90;;;5.70;;
10491;SDS011;5293;51.464;-2.566;2023-02-11T06:00:21;14.60;;;6.53;;
10491;SDS011;5293;51.464;-2.566;2023-02-11T06:02:47;11.30;;;6.13;;
10491;SDS011;5293;51.464;-2.566;2023-02-11T06:05:12;12.50;;;6.03;;
10491;SDS011;5293;51.464;-2.566;2023-02-11T06:07:38;15.60;;;6.03;;
10491;SDS011;5293;51.464;-2.566;2023-02-11T06:10:04;12.70;;;5.87;;
10491;SDS011;5293;51.464;-2.566;2023-02-11T06:12:30;9.97;;;5.63;;
10491;SDS011;5293;51.464;-2.566;2023-02-11T06:14:56;12.23;;;5.60;;
10491;SDS011;5293;51.464;-2.566;2023-02-11T06:17:21;10.70;;;5.73;;
10491;SDS011;5293;51.464;-2.566;2023-02-11T06:19:47;10.20;;;5.47;;
10491;SDS011;5293;51.464;-2.566;2023-02-11T06:22:13;18.17;;;5.77;;
10491;SDS011;5293;51.464;-2.566;2023-02-11T06:24:39;10.97;;;5.20;;
10491;SDS011;5293;51.464;-2.566;2023-02-11T06:27:05;13.67;;;6.40;;
10491;SDS011;5293;51.464;-2.566;2023-02-11T06:29:31;10.87;;;5.97;;
10491;SDS011;5293;51.464;-2.566;2023-02-11T06:31:56;9.30;;;5.47;;
10491;SDS011;5293;51.464;-2.566;2023-02-11T06:34:22;17.97;;;6.33;;
10491;SDS011;5293;51.464;-2.566;2023-02-11T06:36:48;11.93;;;5.60;;
10491;SDS011;5293;51.464;-2.566;2023-02-11T06:39:13;12.97;;;5.97;;
10491;SDS011;5293;51.464;-2.566;2023-02-11T06:41:39;15.70;;;6.00;;
10491;SDS011;5293;51.464;-2.566;2023-02-11T06:44:05;11.23;;;6.20;;
10491;SDS011;5293;51.464;-2.566;2023-02-11T06:46:31;16.63;;;6.63;;
10491;SDS011;5293;51.464;-2.566;2023-02-11T06:48:57;13.47;;;6.07;;
10491;SDS011;5293;51.464;-2.566;2023-02-11T06:51:22;9.47;;;5.33;;
10491;SDS011;5293;51.464;-2.566;2023-02-11T06:53:48;10.70;;;6.00;;
10491;SDS011;5293;51.464;-2.566;2023-02-11T06:56:16;10.90;;;5.43;;
10491;SDS011;5293;51.464;-2.566;2023-02-11T06:58:43;13.60;;;5.63;;
10491;SDS011;5293;51.464;-2.566;2023-02-11T07:01:11;16.53;;;6.17;;
10491;SDS011;5293;51.464;-2.566;2023-02-11T07:03:38;11.63;;;5.67;;
10491;SDS011;5293;51.464;-2.566;2023-02-11T07:06:07;15.03;;;6.57;;
10491;SDS011;5293;51.464;-2.566;2023-02-11T07:08:35;12.57;;;6.07;;
10491;SDS011;5293;51.464;-2.566;2023-02-11T07:11:09;20.40;;;6.47;;
10491;SDS011;5293;51.464;-2.566;2023-02-11T07:13:53;18.47;;;6.57;;
10491;SDS011;5293;51.464;-2.566;2023-02-11T07:16:21;17.03;;;6.57;;
10491;SDS011;5293;51.464;-2.566;2023-02-11T07:18:47;11.43;;;6.27;;
10491;SDS011;5293;51.464;-2.566;2023-02-11T07:21:14;16.10;;;6.00;;
10491;SDS011;5293;51.464;-2.566;2023-02-11T07:23:41;23.90;;;6.40;;
10491;SDS011;5293;51.464;-2.566;2023-02-11T07:26:09;16.67;;;6.10;;
10491;SDS011;5293;51.464;-2.566;2023-02-11T07:28:36;12.87;;;6.90;;
10491;SDS011;5293;51.464;-2.566;2023-02-11T07:31:07;16.67;;;5.97;;
10491;SDS011;5293;51.464;-2.566;2023-02-11T07:33:33;15.70;;;6.33;;
10491;SDS011;5293;51.464;-2.566;2023-02-11T07:35:59;12.23;;;6.17;;
10491;SDS011;5293;51.464;-2.566;2023-02-11T07:38:25;11.43;;;5.40;;
10491;SDS011;5293;51.464;-2.566;2023-02-11T07:40:51;12.67;;;5.63;;
10491;SDS011;5293;51.464;-2.566;2023-02-11T07:43:17;12.63;;;5.53;;
10491;SDS011;5293;51.464;-2.566;2023-02-11T07:45:43;12.73;;;6.33;;
10491;SDS011;5293;51.464;-2.566;2023-02-11T07:48:08;16.70;;;8.10;;
10491;SDS011;5293;51.464;-2.566;2023-02-11T07:50:34;9.97;;;6.10;;
10491;SDS011;5293;51.464;-2.566;2023-02-11T07:53:00;13.20;;;6.57;;
10491;SDS011;5293;51.464;-2.566;2023-02-11T07:55:26;18.63;;;6.80;;
10491;SDS011;5293;51.464;-2.566;2023-02-11T07:57:52;24.53;;;8.43;;
10491;SDS011;5293;51.464;-2.566;2023-02-11T08:00:19;15.43;;;6.43;;
10491;SDS011;5293;51.464;-2.566;2023-02-11T08:02:44;17.33;;;6.77;;
10491;SDS011;5293;51.464;-2.566;2023-02-11T08:05:10;16.57;;;7.13;;
10491;SDS011;5293;51.464;-2.566;2023-02-11T08:07:36;18.30;;;6.60;;
10491;SDS011;5293;51.464;-2.566;2023-02-11T08:10:02;13.57;;;6.70;;
10491;SDS011;5293;51.464;-2.566;2023-02-11T08:12:28;12.93;;;7.20;;
10491;SDS011;5293;51.464;-2.566;2023-02-11T08:14:54;12.23;;;6.03;;
10491;SDS011;5293;51.464;-2.566;2023-02-11T08:17:20;15.93;;;6.77;;
10491;SDS011;5293;51.464;-2.566;2023-02-11T08:19:46;11.73;;;6.53;;
10491;SDS011;5293;51.464;-2.566;2023-02-11T08:22:11;13.50;;;6.90;;
10491;SDS011;5293;51.464;-2.566;2023-02-11T08:24:37;12.77;;;6.13;;
10491;SDS011;5293;51.464;-2.566;2023-02-11T08:27:03;9.03;;;4.80;;
10491;SDS011;5293;51.464;-2.566;2023-02-11T08:29:28;12.63;;;6.53;;
10491;SDS011;5293;51.464;-2.566;2023-02-11T08:31:54;5.90;;;4.23;;
10491;SDS011;5293;51.464;-2.566;2023-02-11T08:34:20;10.77;;;4.60;;
10491;SDS011;5293;51.464;-2.566;2023-02-11T08:36:46;11.60;;;5.07;;
10491;SDS011;5293;51.464;-2.566;2023-02-11T08:39:16;7.07;;;4.27;;
10491;SDS011;5293;51.464;-2.566;2023-02-11T08:41:44;11.70;;;5.07;;
10491;SDS011;5293;51.464;-2.566;2023-02-11T08:44:12;7.53;;;4.50;;
10491;SDS011;5293;51.464;-2.566;2023-02-11T08:46:37;8.37;;;4.90;;
10491;SDS011;5293;51.464;-2.566;2023-02-11T08:49:03;11.40;;;4.20;;
10491;SDS011;5293;51.464;-2.566;2023-02-11T08:51:29;6.43;;;3.83;;
10491;SDS011;5293;51.464;-2.566;2023-02-11T08:53:55;8.93;;;3.50;;
10491;SDS011;5293;51.464;-2.566;2023-02-11T08:56:22;5.87;;;3.50;;
10491;SDS011;5293;51.464;-2.566;2023-02-11T08:58:48;5.37;;;3.37;;
10491;SDS011;5293;51.464;-2.566;2023-02-11T09:01:17;8.33;;;4.10;;
10491;SDS011;5293;51.464;-2.566;2023-02-11T09:03:44;7.63;;;4.90;;
10491;SDS011;5293;51.464;-2.566;2023-02-11T09:06:11;7.47;;;4.80;;
10491;SDS011;5293;51.464;-2.566;2023-02-11T09:08:39;14.97;;;5.93;;
10491;SDS011;5293;51.464;-2.566;2023-02-11T09:11:06;11.00;;;5.77;;
10491;SDS011;5293;51.464;-2.566;2023-02-11T09:13:33;10.23;;;5.20;;
10491;SDS011;5293;51.464;-2.566;2023-02-11T09:15:59;9.97;;;5.70;;
10491;SDS011;5293;51.464;-2.566;2023-02-11T09:18:26;12.90;;;5.37;;
10491;SDS011;5293;51.464;-2.566;2023-02-11T09:21:05;15.83;;;6.23;;
10491;SDS011;5293;51.464;-2.566;2023-02-11T09:23:32;14.23;;;6.20;;
10491;SDS011;5293;51.464;-2.566;2023-02-11T09:26:05;12.87;;;6.97;;
10491;SDS011;5293;51.464;-2.566;2023-02-11T09:28:32;14.07;;;8.17;;
10491;SDS011;5293;51.464;-2.566;2023-02-11T09:30:58;14.87;;;7.13;;
10491;SDS011;5293;51.464;-2.566;2023-02-11T09:33:28;15.63;;;6.73;;
10491;SDS011;5293;51.464;-2.566;2023-02-11T09:35:54;15.60;;;7.17;;
10491;SDS011;5293;51.464;-2.566;2023-02-11T09:38:20;8.80;;;5.63;;
10491;SDS011;5293;51.464;-2.566;2023-02-11T09:40:45;13.77;;;6.03;;
10491;SDS011;5293;51.464;-2.566;2023-02-11T09:43:26;15.80;;;6.80;;
10491;SDS011;5293;51.464;-2.566;2023-02-11T09:46:00;9.67;;;5.93;;
10491;SDS011;5293;51.464;-2.566;2023-02-11T09:48:25;18.03;;;7.43;;
10491;SDS011;5293;51.464;-2.566;2023-02-11T09:50:57;12.70;;;7.67;;
10491;SDS011;5293;51.464;-2.566;2023-02-11T09:53:26;12.10;;;6.47;;
10491;SDS011;5293;51.464;-2.566;2023-02-11T09:56:01;10.90;;;5.77;;
10491;SDS011;5293;51.464;-2.566;2023-02-11T09:58:34;10.80;;;5.27;;
10491;SDS011;5293;51.464;-2.566;2023-02-11T10:06:34;9.67;;;4.10;;
10491;SDS011;5293;51.464;-2.566;2023-02-11T10:17:57;5.53;;;3.83;;
10491;SDS011;5293;51.464;-2.566;2023-02-11T10:23:21;9.90;;;4.97;;
10491;SDS011;5293;51.464;-2.566;2023-02-11T10:25:53;11.17;;;3.97;;
10491;SDS011;5293;51.464;-2.566;2023-02-11T10:28:22;5.17;;;3.17;;
10491;SDS011;5293;51.464;-2.566;2023-02-11T10:35:56;5.37;;;3.07;;
10491;SDS011;5293;51.464;-2.566;2023-02-11T10:38:22;4.80;;;3.37;;
10491;SDS011;5293;51.464;-2.566;2023-02-11T10:40:48;6.37;;;3.03;;
10491;SDS011;5293;51.464;-2.566;2023-02-11T10:43:15;7.10;;;3.33;;
10491;SDS011;5293;51.464;-2.566;2023-02-11T10:51:44;2.53;;;1.60;;
10491;SDS011;5293;51.464;-2.566;2023-02-11T10:56:57;4.60;;;1.90;;
10491;SDS011;5293;51.464;-2.566;2023-02-11T10:59:27;1.73;;;1.33;;
10491;SDS011;5293;51.464;-2.566;2023-02-11T11:02:01;2.27;;;1.03;;
10491;SDS011;5293;51.464;-2.566;2023-02-11T11:12:49;2.60;;;1.10;;
10491;SDS011;5293;51.464;-2.566;2023-02-11T11:17:44;1.93;;;1.47;;
10491;SDS011;5293;51.464;-2.566;2023-02-11T11:20:23;1.23;;;1.20;;
10491;SDS011;5293;51.464;-2.566;2023-02-11T11:23:12;1.60;;;1.20;;
10491;SDS011;5293;51.464;-2.566;2023-02-11T11:28:41;2.13;;;1.10;;
10491;SDS011;5293;51.464;-2.566;2023-02-11T11:31:18;4.23;;;1.30;;
10491;SDS011;5293;51.464;-2.566;2023-02-11T11:33:48;1.70;;;1.20;;
10491;SDS011;5293;51.464;-2.566;2023-02-11T11:36:19;1.73;;;1.40;;
10491;SDS011;5293;51.464;-2.566;2023-02-11T11:38:56;2.93;;;1.20;;
10491;SDS011;5293;51.464;-2.566;2023-02-11T11:41:28;5.30;;;2.80;;
10491;SDS011;5293;51.464;-2.566;2023-02-11T11:44:11;6.90;;;2.30;;
10491;SDS011;5293;51.464;-2.566;2023-02-11T11:46:51;3.87;;;2.73;;
10491;SDS011;5293;51.464;-2.566;2023-02-11T11:49:33;2.10;;;1.90;;
10491;SDS011;5293;51.464;-2.566;2023-02-11T11:54:38;4.17;;;1.07;;
10491;SDS011;5293;51.464;-2.566;2023-02-11T11:57:11;1.70;;;0.97;;
10491;SDS011;5293;51.464;-2.566;2023-02-11T11:59:40;3.43;;;1.07;;
10491;SDS011;5293;51.464;-2.566;2023-02-11T12:13:00;6.03;;;2.83;;
10491;SDS011;5293;51.464;-2.566;2023-02-11T12:30:38;9.17;;;6.03;;
10491;SDS011;5293;51.464;-2.566;2023-02-11T12:33:38;8.53;;;4.90;;
10491;SDS011;5293;51.464;-2.566;2023-02-11T12:36:16;8.63;;;4.80;;
10491;SDS011;5293;51.464;-2.566;2023-02-11T12:50:07;16.50;;;6.97;;
10491;SDS011;5293;51.464;-2.566;2023-02-11T12:55:53;10.80;;;6.03;;
10491;SDS011;5293;51.464;-2.566;2023-02-11T12:58:25;13.33;;;6.07;;
10491;SDS011;5293;51.464;-2.566;2023-02-11T13:00:57;9.43;;;6.70;;
10491;SDS011;5293;51.464;-2.566;2023-02-11T13:03:44;10.23;;;6.50;;
10491;SDS011;5293;51.464;-2.566;2023-02-11T13:06:23;14.57;;;6.87;;
10491;SDS011;5293;51.464;-2.566;2023-02-11T13:08:54;10.33;;;6.50;;
10491;SDS011;5293;51.464;-2.566;2023-02-11T13:11:29;10.43;;;6.40;;
10491;SDS011;5293;51.464;-2.566;2023-02-11T13:14:11;8.77;;;6.63;;
10491;SDS011;5293;51.464;-2.566;2023-02-11T13:16:46;9.73;;;6.17;;
10491;SDS011;5293;51.464;-2.566;2023-02-11T13:30:30;5.70;;;4.07;;
10491;SDS011;5293;51.464;-2.566;2023-02-11T13:37:55;49.10;;;10.37;;
10491;SDS011;5293;51.464;-2.566;2023-02-11T13:40:26;4.10;;;3.17;;
10491;SDS011;5293;51.464;-2.566;2023-02-11T13:42:55;8.87;;;4.00;;
10491;SDS011;5293;51.464;-2.566;2023-02-11T13:47:58;3.63;;;2.87;;
10491;SDS011;5293;51.464;-2.566;2023-02-11T13:50:35;2.87;;;2.53;;
10491;SDS011;5293;51.464;-2.566;2023-02-11T13:53:04;5.50;;;2.53;;
10491;SDS011;5293;51.464;-2.566;2023-02-11T13:55:32;4.03;;;2.63;;
10491;SDS011;5293;51.464;-2.566;2023-02-11T14:11:51;3.47;;;1.90;;
10491;SDS011;5293;51.464;-2.566;2023-02-11T14:14:32;7.60;;;4.47;;
10491;SDS011;5293;51.464;-2.566;2023-02-11T14:27:34;2.30;;;1.80;;
10491;SDS011;5293;51.464;-2.566;2023-02-11T14:32:56;6.20;;;2.30;;
10491;SDS011;5293;51.464;-2.566;2023-02-11T14:43:51;4.37;;;1.10;;
10491;SDS011;5293;51.464;-2.566;2023-02-11T14:46:40;5.07;;;1.53;;
10491;SDS011;5293;51.464;-2.566;2023-02-11T14:49:29;2.63;;;0.90;;
10491;SDS011;5293;51.464;-2.566;2023-02-11T14:52:08;4.43;;;0.73;;
10491;SDS011;5293;51.464;-2.566;2023-02-11T14:54:58;3.70;;;0.70;;
10491;SDS011;5293;51.464;-2.566;2023-02-11T14:57:41;0.97;;;0.83;;
10491;SDS011;5293;51.464;-2.566;2023-02-11T15:00:19;0.87;;;0.67;;
10491;SDS011;5293;51.464;-2.566;2023-02-11T15:02:47;1.93;;;0.77;;
10491;SDS011;5293;51.464;-2.566;2023-02-11T15:05:18;0.80;;;0.80;;
10491;SDS011;5293;51.464;-2.566;2023-02-11T15:07:49;1.80;;;1.10;;
10491;SDS011;5293;51.464;-2.566;2023-02-11T15:10:31;2.53;;;1.40;;
10491;SDS011;5293;51.464;-2.566;2023-02-11T15:13:01;2.77;;;2.53;;
10491;SDS011;5293;51.464;-2.566;2023-02-11T15:15:28;5.13;;;1.90;;
10491;SDS011;5293;51.464;-2.566;2023-02-11T15:17:57;2.47;;;1.80;;
10491;SDS011;5293;51.464;-2.566;2023-02-11T15:20:26;4.20;;;1.90;;
10491;SDS011;5293;51.464;-2.566;2023-02-11T15:22:57;2.83;;;1.67;;
10491;SDS011;5293;51.464;-2.566;2023-02-11T15:25:26;5.17;;;2.07;;
10491;SDS011;5293;51.464;-2.566;2023-02-11T15:27:54;4.40;;;1.90;;
10491;SDS011;5293;51.464;-2.566;2023-02-11T15:32:47;3.23;;;2.00;;
10491;SDS011;5293;51.464;-2.566;2023-02-11T15:35:28;3.77;;;2.70;;
10491;SDS011;5293;51.464;-2.566;2023-02-11T15:37:56;4.27;;;2.50;;
10491;SDS011;5293;51.464;-2.566;2023-02-11T15:40:23;12.20;;;5.37;;
10491;SDS011;5293;51.464;-2.566;2023-02-11T15:42:52;3.73;;;2.27;;
10491;SDS011;5293;51.464;-2.566;2023-02-11T15:47:48;2.97;;;2.00;;
10491;SDS011;5293;51.464;-2.566;2023-02-11T15:50:26;3.83;;;2.30;;
10491;SDS011;5293;51.464;-2.566;2023-02-11T15:52:57;3.53;;;2.23;;
10491;SDS011;5293;51.464;-2.566;2023-02-11T15:55:26;6.13;;;3.10;;
10491;SDS011;5293;51.464;-2.566;2023-02-11T15:57:58;8.17;;;3.80;;
10491;SDS011;5293;51.464;-2.566;2023-02-11T16:00:35;4.77;;;3.10;;
10491;SDS011;5293;51.464;-2.566;2023-02-11T16:03:16;4.77;;;3.20;;
10491;SDS011;5293;51.464;-2.566;2023-02-11T16:05:47;6.47;;;3.43;;
10491;SDS011;5293;51.464;-2.566;2023-02-11T16:08:27;3.37;;;3.00;;
10491;SDS011;5293;51.464;-2.566;2023-02-11T16:10:58;4.87;;;3.37;;
10491;SDS011;5293;51.464;-2.566;2023-02-11T16:13:27;4.67;;;3.70;;
10491;SDS011;5293;51.464;-2.566;2023-02-11T16:16:01;6.27;;;3.80;;
10491;SDS011;5293;51.464;-2.566;2023-02-11T16:18:38;5.70;;;4.20;;
10491;SDS011;5293;51.464;-2.566;2023-02-11T16:21:12;6.77;;;3.60;;
10491;SDS011;5293;51.464;-2.566;2023-02-11T16:23:40;6.20;;;3.70;;
10491;SDS011;5293;51.464;-2.566;2023-02-11T16:26:21;6.77;;;4.43;;
10491;SDS011;5293;51.464;-2.566;2023-02-11T16:28:51;4.57;;;3.60;;
10491;SDS011;5293;51.464;-2.566;2023-02-11T16:31:17;6.43;;;3.67;;
10491;SDS011;5293;51.464;-2.566;2023-02-11T16:33:43;6.60;;;4.63;;
10491;SDS011;5293;51.464;-2.566;2023-02-11T16:36:12;8.00;;;5.10;;
10491;SDS011;5293;51.464;-2.566;2023-02-11T16:38:41;6.90;;;4.37;;
10491;SDS011;5293;51.464;-2.566;2023-02-11T16:41:07;5.80;;;4.30;;
10491;SDS011;5293;51.464;-2.566;2023-02-11T16:43:36;9.20;;;5.30;;
10491;SDS011;5293;51.464;-2.566;2023-02-11T16:46:01;9.07;;;5.93;;
10491;SDS011;5293;51.464;-2.566;2023-02-11T16:48:28;10.60;;;6.23;;
10491;SDS011;5293;51.464;-2.566;2023-02-11T16:50:54;7.50;;;5.93;;
10491;SDS011;5293;51.464;-2.566;2023-02-11T16:53:21;14.73;;;6.13;;
10491;SDS011;5293;51.464;-2.566;2023-02-11T16:55:48;11.43;;;6.23;;
10491;SDS011;5293;51.464;-2.566;2023-02-11T16:58:14;12.00;;;6.53;;
10491;SDS011;5293;51.464;-2.566;2023-02-11T17:00:40;37.50;;;10.80;;
10491;SDS011;5293;51.464;-2.566;2023-02-11T17:03:09;10.93;;;6.70;;
10491;SDS011;5293;51.464;-2.566;2023-02-11T17:05:46;15.03;;;7.90;;
10491;SDS011;5293;51.464;-2.566;2023-02-11T17:08:12;9.03;;;5.63;;
10491;SDS011;5293;51.464;-2.566;2023-02-11T17:10:38;9.10;;;6.00;;
10491;SDS011;5293;51.464;-2.566;2023-02-11T17:13:03;8.33;;;6.00;;
10491;SDS011;5293;51.464;-2.566;2023-02-11T17:15:29;9.20;;;5.90;;
10491;SDS011;5293;51.464;-2.566;2023-02-11T17:17:56;8.60;;;5.03;;
10491;SDS011;5293;51.464;-2.566;2023-02-11T17:20:22;9.73;;;6.47;;
10491;SDS011;5293;51.464;-2.566;2023-02-11T17:22:48;11.07;;;6.67;;
10491;SDS011;5293;51.464;-2.566;2023-02-11T17:25:14;11.07;;;6.37;;
10491;SDS011;5293;51.464;-2.566;2023-02-11T17:27:40;12.03;;;7.23;;
10491;SDS011;5293;51.464;-2.566;2023-02-11T17:30:07;9.13;;;7.30;;
10491;SDS011;5293;51.464;-2.566;2023-02-11T17:32:33;11.57;;;7.43;;
10491;SDS011;5293;51.464;-2.566;2023-02-11T17:34:59;11.03;;;7.13;;
10491;SDS011;5293;51.464;-2.566;2023-02-11T17:37:24;15.73;;;7.60;;
10491;SDS011;5293;51.464;-2.566;2023-02-11T17:39:50;9.43;;;7.63;;
10491;SDS011;5293;51.464;-2.566;2023-02-11T17:42:16;11.13;;;7.27;;
10491;SDS011;5293;51.464;-2.566;2023-02-11T17:44:43;9.37;;;6.90;;